createdAt,value
2018-09-25T00:01:34.976Z,3.20
2018-09-25T00:04:09.764Z,3.20
2018-09-25T00:06:43.708Z,3.20
2018-09-25T00:09:17.788Z,3.20
2018-09-25T00:11:52.128Z,3.20
2018-09-25T00:14:26.536Z,3.20
2018-09-25T00:17:00.430Z,3.10
2018-09-25T00:19:35.338Z,3.10
2018-09-25T00:22:09.474Z,3.10
2018-09-25T00:24:43.392Z,3.00
2018-09-25T00:27:17.486Z,3.00
2018-09-25T00:29:51.612Z,3.00
2018-09-25T00:32:25.769Z,2.90
2018-09-25T00:35:00.077Z,2.90
2018-09-25T00:37:34.783Z,3.00
2018-09-25T00:40:09.003Z,3.00
2018-09-25T00:42:42.957Z,3.00
2018-09-25T00:45:18.861Z,2.90
2018-09-25T00:47:53.729Z,2.90
2018-09-25T00:50:27.842Z,2.80
2018-09-25T00:53:02.396Z,2.90
2018-09-25T00:55:37.220Z,2.90
2018-09-25T00:58:11.136Z,2.90
2018-09-25T01:00:45.300Z,2.80
2018-09-25T01:03:21.520Z,2.80
2018-09-25T01:05:56.366Z,2.80
2018-09-25T01:08:30.540Z,2.80
2018-09-25T01:11:05.758Z,2.70
2018-09-25T01:13:40.200Z,2.70
2018-09-25T01:16:14.584Z,2.60
2018-09-25T01:18:50.468Z,2.60
2018-09-25T01:21:25.712Z,2.50
2018-09-25T01:24:00.442Z,2.60
2018-09-25T01:26:35.960Z,2.50
2018-09-25T01:29:10.595Z,2.40
2018-09-25T01:31:45.028Z,2.50
2018-09-25T01:34:24.485Z,2.40
2018-09-25T01:36:59.437Z,2.40
2018-09-25T01:39:33.837Z,2.40
2018-09-25T01:42:07.940Z,2.40
2018-09-25T01:44:42.727Z,2.30
2018-09-25T01:47:17.672Z,2.30
2018-09-25T01:49:53.013Z,2.30
2018-09-25T01:52:27.460Z,2.30
2018-09-25T01:55:02.076Z,2.30
2018-09-25T01:57:35.965Z,2.20
2018-09-25T02:00:11.084Z,2.20
2018-09-25T02:02:44.924Z,2.10
2018-09-25T02:05:19.277Z,2.00
2018-09-25T02:07:53.259Z,2.00
2018-09-25T02:10:27.161Z,2.00
2018-09-25T02:13:01.413Z,2.10
2018-09-25T02:15:35.791Z,2.20
2018-09-25T02:18:11.152Z,2.10
2018-09-25T02:20:45.473Z,2.10
2018-09-25T02:23:22.214Z,2.00
2018-09-25T02:25:56.589Z,2.10
2018-09-25T02:28:30.768Z,1.90
2018-09-25T02:31:04.926Z,1.80
2018-09-25T02:33:41.504Z,1.80
2018-09-25T02:36:16.933Z,1.80
2018-09-25T02:38:52.137Z,1.80
2018-09-25T02:41:31.358Z,1.70
2018-09-25T02:44:05.856Z,1.70
2018-09-25T02:46:39.705Z,1.80
2018-09-25T02:49:15.116Z,1.80
2018-09-25T02:51:51.512Z,1.80
2018-09-25T02:54:25.852Z,1.70
2018-09-25T02:57:04.002Z,1.60
2018-09-25T02:59:39.070Z,1.70
2018-09-25T03:02:13.056Z,1.70
2018-09-25T03:04:52.203Z,1.70
2018-09-25T03:07:29.149Z,1.60
2018-09-25T03:10:03.454Z,1.60
2018-09-25T03:12:37.803Z,1.60
2018-09-25T03:15:12.015Z,1.60
2018-09-25T03:17:45.980Z,1.60
2018-09-25T03:20:19.878Z,1.60
2018-09-25T03:22:54.076Z,1.50
2018-09-25T03:25:32.907Z,1.50
2018-09-25T03:28:07.554Z,1.40
2018-09-25T03:30:41.567Z,1.40
2018-09-25T03:33:15.923Z,1.30
2018-09-25T03:35:53.711Z,1.30
2018-09-25T03:38:29.097Z,1.30
2018-09-25T03:41:05.653Z,1.30
2018-09-25T03:43:40.260Z,1.30
2018-09-25T03:46:17.447Z,1.30
2018-09-25T03:48:51.461Z,1.30
2018-09-25T03:51:25.795Z,1.30
2018-09-25T03:54:00.140Z,1.30
2018-09-25T03:56:35.948Z,1.20
2018-09-25T03:59:09.876Z,1.20
2018-09-25T04:01:44.186Z,1.30
2018-09-25T04:04:22.702Z,1.30
2018-09-25T04:06:56.526Z,1.30
2018-09-25T04:09:30.556Z,1.40
2018-09-25T04:12:04.866Z,1.30
2018-09-25T04:14:39.184Z,1.20
2018-09-25T04:17:15.939Z,1.20
2018-09-25T04:19:49.762Z,1.30
2018-09-25T04:22:23.861Z,1.30
2018-09-25T04:24:58.859Z,1.20
2018-09-25T04:27:33.401Z,1.30
2018-09-25T04:30:08.860Z,1.10
2018-09-25T04:32:43.697Z,1.20
2018-09-25T04:35:18.580Z,1.20
2018-09-25T04:37:52.591Z,1.10
2018-09-25T04:40:26.363Z,1.10
2018-09-25T04:43:00.225Z,1.00
2018-09-25T04:45:34.757Z,1.10
2018-09-25T04:48:08.948Z,1.00
2018-09-25T04:50:43.130Z,1.00
2018-09-25T04:53:18.318Z,1.00
2018-09-25T04:55:56.301Z,1.00
2018-09-25T04:58:31.268Z,0.90
2018-09-25T05:01:05.617Z,0.80
2018-09-25T05:03:39.804Z,0.80
2018-09-25T05:06:13.976Z,0.70
2018-09-25T05:08:48.051Z,0.70
2018-09-25T05:11:24.425Z,0.60
2018-09-25T05:13:59.599Z,0.70
2018-09-25T05:16:35.912Z,0.70
2018-09-25T05:19:09.816Z,0.60
2018-09-25T05:21:44.009Z,0.60
2018-09-25T05:24:17.847Z,0.60
2018-09-25T05:26:53.023Z,0.60
2018-09-25T05:29:28.688Z,0.60
2018-09-25T05:32:02.913Z,0.50
2018-09-25T05:34:37.186Z,0.50
2018-09-25T05:37:11.291Z,0.50
2018-09-25T05:39:45.604Z,0.50
2018-09-25T05:42:25.525Z,0.50
2018-09-25T05:44:59.557Z,0.50
2018-09-25T05:47:33.521Z,0.50
2018-09-25T05:50:11.239Z,0.50
2018-09-25T05:52:46.212Z,0.60
2018-09-25T05:55:20.119Z,0.50
2018-09-25T05:57:54.489Z,0.40
2018-09-25T06:00:28.535Z,0.40
2018-09-25T06:03:02.623Z,0.40
2018-09-25T06:05:36.623Z,0.40
2018-09-25T06:08:10.794Z,0.50
2018-09-25T06:10:44.992Z,0.50
2018-09-25T06:13:19.108Z,0.50
2018-09-25T06:15:54.147Z,0.50
2018-09-25T06:18:28.512Z,0.50
2018-09-25T06:21:02.587Z,0.60
2018-09-25T06:23:36.881Z,0.60
2018-09-25T06:26:11.208Z,0.70
2018-09-25T06:28:45.020Z,0.70
2018-09-25T06:31:19.372Z,0.80
2018-09-25T06:33:53.837Z,0.90
2018-09-25T06:36:29.665Z,0.90
2018-09-25T06:39:03.865Z,1.00
2018-09-25T06:41:38.524Z,1.00
2018-09-25T06:44:12.711Z,1.10
2018-09-25T06:46:52.287Z,1.30
2018-09-25T06:49:26.292Z,1.40
2018-09-25T06:52:00.625Z,1.40
2018-09-25T06:54:34.615Z,1.50
2018-09-25T06:57:08.901Z,1.60
2018-09-25T06:59:43.310Z,1.70
2018-09-25T07:02:17.308Z,1.70
2018-09-25T07:04:51.645Z,1.90
2018-09-25T07:07:27.371Z,2.00
2018-09-25T07:10:01.717Z,2.10
2018-09-25T07:12:35.902Z,2.30
2018-09-25T07:15:10.894Z,2.40
2018-09-25T07:17:44.999Z,2.60
2018-09-25T07:20:18.928Z,2.80
2018-09-25T07:22:57.817Z,2.90
2018-09-25T07:25:32.573Z,3.00
2018-09-25T07:28:06.409Z,3.10
2018-09-25T07:30:51.361Z,3.20
2018-09-25T07:33:43.752Z,3.30
2018-09-25T07:36:27.948Z,3.40
2018-09-25T07:39:01.859Z,3.60
2018-09-25T07:41:36.028Z,3.70
2018-09-25T07:44:12.315Z,3.80
2018-09-25T07:46:47.587Z,3.90
2018-09-25T07:49:22.706Z,3.90
2018-09-25T07:51:58.260Z,4.00
2018-09-25T07:54:32.158Z,4.10
2018-09-25T07:57:06.165Z,4.20
2018-09-25T07:59:47.063Z,4.50
2018-09-25T08:02:21.279Z,4.60
2018-09-25T08:05:00.384Z,4.60
2018-09-25T08:07:35.702Z,4.70
2018-09-25T08:10:10.949Z,5.00
2018-09-25T08:12:45.184Z,5.30
2018-09-25T08:15:20.053Z,5.40
2018-09-25T08:17:58.063Z,5.50
2018-09-25T08:20:33.112Z,5.70
2018-09-25T08:23:08.778Z,5.80
2018-09-25T08:25:43.127Z,6.00
2018-09-25T08:28:17.364Z,6.10
2018-09-25T08:30:51.460Z,6.30
2018-09-25T08:33:27.258Z,6.30
2018-09-25T08:36:01.534Z,6.40
2018-09-25T08:38:36.633Z,6.40
2018-09-25T08:41:10.877Z,6.60
2018-09-25T08:43:44.829Z,6.70
2018-09-25T08:46:18.925Z,6.80
2018-09-25T08:48:54.578Z,6.90
2018-09-25T08:51:30.199Z,6.80
2018-09-25T08:54:13.163Z,7.10
2018-09-25T08:56:47.199Z,7.20
2018-09-25T08:59:21.079Z,7.30
2018-09-25T09:01:55.447Z,7.60
2018-09-25T09:04:29.343Z,7.60
2018-09-25T09:07:03.508Z,7.90
2018-09-25T09:09:37.954Z,7.80
2018-09-25T09:12:12.872Z,7.90
2018-09-25T09:14:56.613Z,8.10
2018-09-25T09:17:30.984Z,8.20
2018-09-25T09:20:07.073Z,8.30
2018-09-25T09:22:41.412Z,8.40
2018-09-25T09:25:17.206Z,8.60
2018-09-25T09:27:52.658Z,8.80
2018-09-25T09:30:31.479Z,9.10
2018-09-25T09:33:11.197Z,9.20
2018-09-25T09:35:46.121Z,9.20
2018-09-25T09:38:21.435Z,9.40
2018-09-25T09:40:59.767Z,9.70
2018-09-25T09:43:40.384Z,9.60
2018-09-25T09:46:16.833Z,9.70
2018-09-25T09:48:54.631Z,9.70
2018-09-25T09:51:28.865Z,9.80
2018-09-25T09:54:03.785Z,10.00
2018-09-25T09:56:38.204Z,10.10
2018-09-25T09:59:12.632Z,10.20
2018-09-25T10:01:47.056Z,10.50
2018-09-25T10:04:21.120Z,10.50
2018-09-25T10:06:56.748Z,10.50
2018-09-25T10:09:34.833Z,10.60
2018-09-25T10:12:10.470Z,10.80
2018-09-25T10:14:46.584Z,11.00
2018-09-25T10:17:20.501Z,11.20
2018-09-25T10:20:13.502Z,11.30
2018-09-25T10:22:49.202Z,11.40
2018-09-25T10:25:24.561Z,11.40
2018-09-25T10:28:00.110Z,11.60
2018-09-25T10:30:34.433Z,11.70
2018-09-25T10:33:09.464Z,11.70
2018-09-25T10:35:43.808Z,11.80
2018-09-25T10:38:18.899Z,11.90
2018-09-25T10:40:57.884Z,12.10
2018-09-25T10:43:32.489Z,12.40
2018-09-25T10:46:10.716Z,12.60
2018-09-25T10:48:45.816Z,12.80
2018-09-25T10:51:20.104Z,12.90
2018-09-25T10:53:54.433Z,13.00
2018-09-25T10:56:28.304Z,12.90
2018-09-25T10:59:02.305Z,13.00
2018-09-25T11:01:36.747Z,13.10
2018-09-25T11:04:20.186Z,13.20
2018-09-25T11:07:05.866Z,13.20
2018-09-25T11:09:40.461Z,13.10
2018-09-25T11:12:16.307Z,13.10
2018-09-25T11:14:52.361Z,13.40
2018-09-25T11:17:27.686Z,13.50
2018-09-25T11:20:02.007Z,13.40
2018-09-25T11:22:36.634Z,13.50
2018-09-25T11:25:11.805Z,13.70
2018-09-25T11:27:46.104Z,13.60
2018-09-25T11:30:26.647Z,13.70
2018-09-25T11:33:00.648Z,13.80
2018-09-25T11:35:34.519Z,14.10
2018-09-25T11:38:08.483Z,14.40
2018-09-25T11:40:42.935Z,14.60
2018-09-25T11:43:16.868Z,14.20
2018-09-25T11:45:52.169Z,14.00
2018-09-25T11:48:26.779Z,13.80
2018-09-25T11:51:00.932Z,14.10
2018-09-25T11:53:36.147Z,14.20
2018-09-25T11:56:11.681Z,14.20
2018-09-25T11:58:46.447Z,14.10
2018-09-25T12:01:21.002Z,13.90
2018-09-25T12:04:08.776Z,13.80
2018-09-25T12:06:43.193Z,14.20
2018-09-25T12:09:17.255Z,14.30
2018-09-25T12:11:52.675Z,14.20
2018-09-25T12:14:26.988Z,14.00
2018-09-25T12:17:01.091Z,14.00
2018-09-25T12:19:37.562Z,14.10
2018-09-25T12:22:17.408Z,14.30
2018-09-25T12:24:51.497Z,14.70
2018-09-25T12:27:25.793Z,14.90
2018-09-25T12:29:59.644Z,14.90
2018-09-25T12:32:34.572Z,15.20
2018-09-25T12:35:10.868Z,15.10
2018-09-25T12:37:45.478Z,14.70
2018-09-25T12:40:20.398Z,14.40
2018-09-25T12:42:55.475Z,14.40
2018-09-25T12:45:31.360Z,14.60
2018-09-25T12:48:05.681Z,14.80
2018-09-25T12:50:40.317Z,14.90
2018-09-25T12:53:16.240Z,14.80
2018-09-25T12:55:50.725Z,14.70
2018-09-25T12:58:27.734Z,14.70
2018-09-25T13:01:03.403Z,14.80
2018-09-25T13:03:39.160Z,14.80
2018-09-25T13:06:15.229Z,15.00
2018-09-25T13:08:49.290Z,15.10
2018-09-25T13:11:29.023Z,15.00
2018-09-25T13:14:04.764Z,14.90
2018-09-25T13:16:39.105Z,15.00
2018-09-25T13:19:22.795Z,15.20
2018-09-25T13:21:56.922Z,15.20
2018-09-25T13:24:36.812Z,15.30
2018-09-25T13:27:12.791Z,15.30
2018-09-25T13:29:52.068Z,15.40
2018-09-25T13:32:27.013Z,15.00
2018-09-25T13:35:07.648Z,15.30
2018-09-25T13:37:45.059Z,15.40
2018-09-25T13:40:21.072Z,15.20
2018-09-25T13:43:00.175Z,15.30
2018-09-25T13:45:35.339Z,15.40
2018-09-25T13:48:09.636Z,15.40
2018-09-25T13:50:43.796Z,15.30
2018-09-25T13:53:20.414Z,15.40
2018-09-25T13:55:54.803Z,15.10
2018-09-25T13:58:35.095Z,14.80
2018-09-25T14:01:09.297Z,14.90
2018-09-25T14:03:43.788Z,15.00
2018-09-25T14:06:23.468Z,15.00
2018-09-25T14:09:01.094Z,14.90
2018-09-25T14:11:35.910Z,15.10
2018-09-25T14:14:10.326Z,15.10
2018-09-25T14:16:45.095Z,15.20
2018-09-25T14:19:21.572Z,15.20
2018-09-25T14:22:01.077Z,15.20
2018-09-25T14:24:35.390Z,15.50
2018-09-25T14:27:09.896Z,15.50
2018-09-25T14:29:44.325Z,15.60
2018-09-25T14:32:21.192Z,15.70
2018-09-25T14:34:59.360Z,15.60
2018-09-25T14:37:35.823Z,15.40
2018-09-25T14:40:09.946Z,15.40
2018-09-25T14:42:44.142Z,15.30
2018-09-25T14:45:18.122Z,15.30
2018-09-25T14:47:51.998Z,15.30
2018-09-25T14:50:26.360Z,15.00
2018-09-25T14:53:01.044Z,15.10
2018-09-25T14:55:36.890Z,15.20
2018-09-25T14:58:11.255Z,15.20
2018-09-25T15:00:49.346Z,15.30
2018-09-25T15:03:23.657Z,15.50
2018-09-25T15:06:00.038Z,15.40
2018-09-25T15:08:37.524Z,15.20
2018-09-25T15:11:12.898Z,15.20
2018-09-25T15:13:52.992Z,15.10
2018-09-25T15:16:27.104Z,15.40
2018-09-25T15:19:00.987Z,15.40
2018-09-25T15:21:37.066Z,15.10
2018-09-25T15:24:11.949Z,15.10
2018-09-25T15:26:45.870Z,15.10
2018-09-25T15:29:19.603Z,15.20
2018-09-25T15:32:05.273Z,15.30
2018-09-25T15:34:40.218Z,15.00
2018-09-25T15:37:17.371Z,14.90
2018-09-25T15:39:52.476Z,14.80
2018-09-25T15:42:34.172Z,14.80
2018-09-25T15:45:09.225Z,14.80
2018-09-25T15:47:51.391Z,14.80
2018-09-25T15:50:25.609Z,14.90
2018-09-25T15:53:00.004Z,14.70
2018-09-25T15:55:35.588Z,14.70
2018-09-25T15:58:09.584Z,14.80
2018-09-25T16:00:43.662Z,14.70
2018-09-25T16:03:21.084Z,14.60
2018-09-25T16:06:00.504Z,14.50
2018-09-25T16:08:38.098Z,14.30
2018-09-25T16:11:14.684Z,14.90
2018-09-25T16:13:48.735Z,14.80
2018-09-25T16:16:22.577Z,14.60
2018-09-25T16:18:57.969Z,14.50
2018-09-25T16:21:32.745Z,14.30
2018-09-25T16:24:07.513Z,14.40
2018-09-25T16:26:43.873Z,14.70
2018-09-25T16:29:17.983Z,14.70
2018-09-25T16:31:52.637Z,14.40
2018-09-25T16:34:28.000Z,14.20
2018-09-25T16:37:02.995Z,14.20
2018-09-25T16:39:37.113Z,14.40
2018-09-25T16:42:11.466Z,14.40
2018-09-25T16:44:46.454Z,14.40
2018-09-25T16:47:21.787Z,14.10
2018-09-25T16:49:57.018Z,14.10
2018-09-25T16:52:33.573Z,13.70
2018-09-25T16:55:07.505Z,13.60
2018-09-25T16:57:55.644Z,13.80
2018-09-25T17:00:31.162Z,13.60
2018-09-25T17:03:05.640Z,13.60
2018-09-25T17:05:42.164Z,13.70
2018-09-25T17:08:17.637Z,13.60
2018-09-25T17:10:51.644Z,13.50
2018-09-25T17:13:27.110Z,13.20
2018-09-25T17:16:03.931Z,13.30
2018-09-25T17:18:41.812Z,13.40
2018-09-25T17:21:18.100Z,13.30
2018-09-25T17:23:52.702Z,13.20
2018-09-25T17:26:30.573Z,13.10
2018-09-25T17:29:05.009Z,12.80
2018-09-25T17:31:42.478Z,12.30
2018-09-25T17:34:16.640Z,12.30
2018-09-25T17:36:57.680Z,12.30
2018-09-25T17:39:33.464Z,12.50
2018-09-25T17:42:11.114Z,12.30
2018-09-25T17:44:45.188Z,12.10
2018-09-25T17:47:24.548Z,12.10
2018-09-25T17:49:59.724Z,12.20
2018-09-25T17:52:40.854Z,12.20
2018-09-25T17:55:19.942Z,11.90
2018-09-25T17:57:56.107Z,11.70
2018-09-25T18:00:35.800Z,11.50
2018-09-25T18:03:10.190Z,11.40
2018-09-25T18:05:50.146Z,11.30
2018-09-25T18:08:24.402Z,11.20
2018-09-25T18:10:58.833Z,11.10
2018-09-25T18:13:33.541Z,11.00
2018-09-25T18:16:08.736Z,10.90
2018-09-25T18:18:49.578Z,10.80
2018-09-25T18:21:24.334Z,10.80
2018-09-25T18:23:58.867Z,10.70
2018-09-25T18:26:33.005Z,10.70
2018-09-25T18:29:07.409Z,10.70
2018-09-25T18:31:41.527Z,10.60
2018-09-25T18:34:20.801Z,10.50
2018-09-25T18:36:56.603Z,10.50
2018-09-25T18:39:31.493Z,10.30
2018-09-25T18:42:07.847Z,10.20
2018-09-25T18:44:46.388Z,10.20
2018-09-25T18:47:20.432Z,10.20
2018-09-25T18:49:54.576Z,10.10
2018-09-25T18:52:32.513Z,10.10
2018-09-25T18:55:11.115Z,10.00
2018-09-25T18:57:47.696Z,10.00
2018-09-25T19:00:24.882Z,9.90
2018-09-25T19:03:01.879Z,9.80
2018-09-25T19:05:37.164Z,9.70
2018-09-25T19:08:16.065Z,9.70
2018-09-25T19:10:50.679Z,9.60
2018-09-25T19:13:33.378Z,9.60
2018-09-25T19:16:08.948Z,9.50
2018-09-25T19:18:46.369Z,9.40
2018-09-25T19:21:25.575Z,9.30
2018-09-25T19:24:01.246Z,9.10
2018-09-25T19:26:35.384Z,9.10
2018-09-25T19:29:09.947Z,9.10
2018-09-25T19:31:45.030Z,9.00
2018-09-25T19:34:21.180Z,9.00
2018-09-25T19:36:56.453Z,8.90
2018-09-25T19:39:30.472Z,8.80
2018-09-25T19:42:06.974Z,8.80
2018-09-25T19:44:42.532Z,8.80
2018-09-25T19:47:18.730Z,8.70
2018-09-25T19:49:52.981Z,8.60
2018-09-25T19:52:28.208Z,8.50
2018-09-25T19:55:04.360Z,8.50
2018-09-25T19:57:39.480Z,8.40
2018-09-25T20:00:13.706Z,8.20
2018-09-25T20:02:54.328Z,8.20
2018-09-25T20:05:29.348Z,8.20
2018-09-25T20:08:06.101Z,8.20
2018-09-25T20:10:40.505Z,8.10
2018-09-25T20:13:16.979Z,8.10
2018-09-25T20:15:56.013Z,8.00
2018-09-25T20:18:35.796Z,8.00
2018-09-25T20:21:16.252Z,7.90
2018-09-25T20:23:55.441Z,7.90
2018-09-25T20:26:31.630Z,7.90
2018-09-25T20:29:07.820Z,7.80
2018-09-25T20:31:42.473Z,7.90
2018-09-25T20:34:17.980Z,7.90
2018-09-25T20:36:52.657Z,7.80
2018-09-25T20:39:29.898Z,7.60
2018-09-25T20:42:04.038Z,7.60
2018-09-25T20:44:38.404Z,7.50
2018-09-25T20:47:14.783Z,7.40
2018-09-25T20:49:48.780Z,7.40
2018-09-25T20:52:23.592Z,7.40
2018-09-25T20:54:57.654Z,7.40
2018-09-25T20:57:31.780Z,7.30
2018-09-25T21:00:05.588Z,7.30
2018-09-25T21:02:39.885Z,7.20
2018-09-25T21:05:14.299Z,7.10
2018-09-25T21:07:48.445Z,7.10
2018-09-25T21:10:22.236Z,7.20
2018-09-25T21:12:57.309Z,7.20
2018-09-25T21:15:31.412Z,7.10
2018-09-25T21:18:05.240Z,7.10
2018-09-25T21:20:39.176Z,7.20
2018-09-25T21:23:19.247Z,7.20
2018-09-25T21:25:53.650Z,7.10
2018-09-25T21:28:27.539Z,6.90
2018-09-25T21:31:01.633Z,6.80
2018-09-25T21:33:35.657Z,6.70
2018-09-25T21:36:09.508Z,6.70
2018-09-25T21:38:43.401Z,6.60
2018-09-25T21:41:21.070Z,6.70
2018-09-25T21:43:56.918Z,6.60
2018-09-25T21:46:30.874Z,6.60
2018-09-25T21:49:07.406Z,6.70
2018-09-25T21:51:41.742Z,6.70
2018-09-25T21:54:15.921Z,6.70
2018-09-25T21:56:50.141Z,6.50
2018-09-25T21:59:25.761Z,6.50
2018-09-25T22:01:59.851Z,6.60
2018-09-25T22:04:34.964Z,6.60
2018-09-25T22:07:09.292Z,6.60
2018-09-25T22:09:43.185Z,6.40
2018-09-25T22:12:17.304Z,6.30
2018-09-25T22:14:51.352Z,6.20
2018-09-25T22:17:26.858Z,6.10
2018-09-25T22:20:00.975Z,6.20
2018-09-25T22:22:36.006Z,6.20
2018-09-25T22:25:10.428Z,6.20
2018-09-25T22:27:44.562Z,6.20
2018-09-25T22:30:20.490Z,6.10
2018-09-25T22:32:55.694Z,6.00
2018-09-25T22:35:29.704Z,6.10
2018-09-25T22:38:04.090Z,6.00
2018-09-25T22:40:38.372Z,6.00
2018-09-25T22:43:13.982Z,6.20
2018-09-25T22:45:48.144Z,6.10
2018-09-25T22:48:22.634Z,6.00
2018-09-25T22:50:57.609Z,6.00
2018-09-25T22:53:31.642Z,5.90
2018-09-25T22:56:05.444Z,5.90
2018-09-25T22:58:39.689Z,5.80
2018-09-25T23:01:13.708Z,5.80
2018-09-25T23:03:48.251Z,5.80
2018-09-25T23:06:22.425Z,5.80
2018-09-25T23:09:00.524Z,5.70
2018-09-25T23:11:34.562Z,5.70
2018-09-25T23:14:09.865Z,5.70
2018-09-25T23:16:44.244Z,5.60
2018-09-25T23:19:18.620Z,5.60
2018-09-25T23:21:53.419Z,5.70
2018-09-25T23:24:33.393Z,5.60
2018-09-25T23:27:07.557Z,5.50
2018-09-25T23:29:41.558Z,5.50
2018-09-25T23:32:15.477Z,5.50
2018-09-25T23:34:51.121Z,5.60
2018-09-25T23:37:25.282Z,5.70
2018-09-25T23:40:03.162Z,5.60
2018-09-25T23:42:37.455Z,5.60
2018-09-25T23:47:17.540Z,5.50
2018-09-25T23:49:55.681Z,5.50
2018-09-25T23:52:31.825Z,5.40
2018-09-25T23:57:10.217Z,5.50
